sensor_id;sensor_type;location;lat;lon;timestamp;temperature;humidity
70830;SHT30;58451;51.550;7.208;2023-01-26T00:02:52;-0.21;80.38
70830;SHT30;58451;51.550;7.208;2023-01-26T00:04:23;-0.21;80.50
70830;SHT30;58451;51.550;7.208;2023-01-26T00:05:55;-0.21;80.25
70830;SHT30;58451;51.550;7.208;2023-01-26T00:07:27;-0.20;80.37
70830;SHT30;58451;51.550;7.208;2023-01-26T00:08:59;-0.19;80.55
70830;SHT30;58451;51.550;7.208;2023-01-26T00:10:31;-0.18;80.52
70830;SHT30;58451;51.550;7.208;2023-01-26T00:12:02;-0.17;80.27
70830;SHT30;58451;51.550;7.208;2023-01-26T00:13:34;-0.17;80.43
70830;SHT30;58451;51.550;7.208;2023-01-26T00:15:06;-0.17;80.40
70830;SHT30;58451;51.550;7.208;2023-01-26T00:16:38;-0.15;80.50
70830;SHT30;58451;51.550;7.208;2023-01-26T00:18:10;-0.15;80.65
70830;SHT30;58451;51.550;7.208;2023-01-26T00:19:41;-0.14;80.62
70830;SHT30;58451;51.550;7.208;2023-01-26T00:21:14;-0.14;80.62
70830;SHT30;58451;51.550;7.208;2023-01-26T00:22:48;-0.15;80.42
70830;SHT30;58451;51.550;7.208;2023-01-26T00:24:20;-0.18;79.98
70830;SHT30;58451;51.550;7.208;2023-01-26T00:25:51;-0.18;80.48
70830;SHT30;58451;51.550;7.208;2023-01-26T00:27:22;-0.19;80.77
70830;SHT30;58451;51.550;7.208;2023-01-26T00:28:54;-0.18;80.85
70830;SHT30;58451;51.550;7.208;2023-01-26T00:30:25;-0.20;80.85
70830;SHT30;58451;51.550;7.208;2023-01-26T00:31:56;-0.17;81.00
70830;SHT30;58451;51.550;7.208;2023-01-26T00:33:27;-0.17;80.88
70830;SHT30;58451;51.550;7.208;2023-01-26T00:34:59;-0.16;80.98
70830;SHT30;58451;51.550;7.208;2023-01-26T00:36:30;-0.19;80.82
70830;SHT30;58451;51.550;7.208;2023-01-26T00:38:01;-0.17;80.87
70830;SHT30;58451;51.550;7.208;2023-01-26T00:39:33;-0.17;80.83
70830;SHT30;58451;51.550;7.208;2023-01-26T00:41:05;-0.17;80.93
70830;SHT30;58451;51.550;7.208;2023-01-26T00:42:36;-0.16;80.90
70830;SHT30;58451;51.550;7.208;2023-01-26T00:44:07;-0.17;80.82
70830;SHT30;58451;51.550;7.208;2023-01-26T00:45:39;-0.19;80.68
70830;SHT30;58451;51.550;7.208;2023-01-26T00:47:10;-0.22;80.73
70830;SHT30;58451;51.550;7.208;2023-01-26T00:48:43;-0.21;80.82
70830;SHT30;58451;51.550;7.208;2023-01-26T00:50:15;-0.20;80.92
70830;SHT30;58451;51.550;7.208;2023-01-26T00:51:46;-0.19;81.02
70830;SHT30;58451;51.550;7.208;2023-01-26T00:53:17;-0.18;81.05
70830;SHT30;58451;51.550;7.208;2023-01-26T00:54:49;-0.20;81.02
70830;SHT30;58451;51.550;7.208;2023-01-26T00:56:20;-0.20;81.08
70830;SHT30;58451;51.550;7.208;2023-01-26T00:57:51;-0.23;81.18
70830;SHT30;58451;51.550;7.208;2023-01-26T00:59:23;-0.23;81.27
70830;SHT30;58451;51.550;7.208;2023-01-26T01:00:55;-0.23;81.28
70830;SHT30;58451;51.550;7.208;2023-01-26T01:02:27;-0.21;81.33
70830;SHT30;58451;51.550;7.208;2023-01-26T01:03:58;-0.19;81.37
70830;SHT30;58451;51.550;7.208;2023-01-26T01:05:30;-0.17;81.37
70830;SHT30;58451;51.550;7.208;2023-01-26T01:07:03;-0.16;81.60
70830;SHT30;58451;51.550;7.208;2023-01-26T01:08:36;-0.18;81.40
70830;SHT30;58451;51.550;7.208;2023-01-26T01:10:07;-0.17;81.40
70830;SHT30;58451;51.550;7.208;2023-01-26T01:11:41;-0.14;81.53
70830;SHT30;58451;51.550;7.208;2023-01-26T01:13:14;-0.15;81.50
70830;SHT30;58451;51.550;7.208;2023-01-26T01:14:45;-0.17;81.52
70830;SHT30;58451;51.550;7.208;2023-01-26T01:16:17;-0.19;81.62
70830;SHT30;58451;51.550;7.208;2023-01-26T01:17:49;-0.21;81.75
70830;SHT30;58451;51.550;7.208;2023-01-26T01:19:20;-0.21;81.75
70830;SHT30;58451;51.550;7.208;2023-01-26T01:20:52;-0.18;81.80
70830;SHT30;58451;51.550;7.208;2023-01-26T01:22:24;-0.17;81.80
70830;SHT30;58451;51.550;7.208;2023-01-26T01:23:56;-0.15;81.82
70830;SHT30;58451;51.550;7.208;2023-01-26T01:25:30;-0.11;81.83
70830;SHT30;58451;51.550;7.208;2023-01-26T01:27:01;-0.11;81.82
70830;SHT30;58451;51.550;7.208;2023-01-26T01:28:33;-0.12;81.93
70830;SHT30;58451;51.550;7.208;2023-01-26T01:30:06;-0.11;82.00
70830;SHT30;58451;51.550;7.208;2023-01-26T01:31:39;-0.10;81.98
70830;SHT30;58451;51.550;7.208;2023-01-26T01:33:11;-0.11;82.03
70830;SHT30;58451;51.550;7.208;2023-01-26T01:34:42;-0.14;82.30
70830;SHT30;58451;51.550;7.208;2023-01-26T01:36:17;-0.15;82.20
70830;SHT30;58451;51.550;7.208;2023-01-26T01:37:49;-0.13;82.15
70830;SHT30;58451;51.550;7.208;2023-01-26T01:39:20;-0.12;82.28
70830;SHT30;58451;51.550;7.208;2023-01-26T01:40:53;-0.12;82.27
70830;SHT30;58451;51.550;7.208;2023-01-26T01:42:25;-0.12;82.25
70830;SHT30;58451;51.550;7.208;2023-01-26T01:45:54;-0.09;82.23
70830;SHT30;58451;51.550;7.208;2023-01-26T01:47:28;-0.09;82.30
70830;SHT30;58451;51.550;7.208;2023-01-26T01:50:38;-0.10;82.27
70830;SHT30;58451;51.550;7.208;2023-01-26T01:52:17;-0.11;82.35
70830;SHT30;58451;51.550;7.208;2023-01-26T01:53:57;-0.11;82.40
70830;SHT30;58451;51.550;7.208;2023-01-26T01:55:36;-0.12;82.48
70830;SHT30;58451;51.550;7.208;2023-01-26T01:57:09;-0.12;82.62
70830;SHT30;58451;51.550;7.208;2023-01-26T01:58:57;-0.12;82.50
70830;SHT30;58451;51.550;7.208;2023-01-26T02:00:34;-0.11;82.57
70830;SHT30;58451;51.550;7.208;2023-01-26T02:02:08;-0.12;82.97
70830;SHT30;58451;51.550;7.208;2023-01-26T02:03:41;-0.12;83.00
70830;SHT30;58451;51.550;7.208;2023-01-26T02:05:23;-0.13;82.82
70830;SHT30;58451;51.550;7.208;2023-01-26T02:07:01;-0.12;82.80
70830;SHT30;58451;51.550;7.208;2023-01-26T02:08:48;-0.12;82.80
70830;SHT30;58451;51.550;7.208;2023-01-26T02:10:23;-0.12;82.77
70830;SHT30;58451;51.550;7.208;2023-01-26T02:11:55;-0.12;82.70
70830;SHT30;58451;51.550;7.208;2023-01-26T02:13:29;-0.14;82.78
70830;SHT30;58451;51.550;7.208;2023-01-26T02:15:03;-0.15;82.82
70830;SHT30;58451;51.550;7.208;2023-01-26T02:16:35;-0.18;82.82
70830;SHT30;58451;51.550;7.208;2023-01-26T02:18:10;-0.18;82.80
70830;SHT30;58451;51.550;7.208;2023-01-26T02:20:28;-0.17;82.75
70830;SHT30;58451;51.550;7.208;2023-01-26T02:22:09;-0.18;82.73
70830;SHT30;58451;51.550;7.208;2023-01-26T02:24:20;-0.18;82.80
70830;SHT30;58451;51.550;7.208;2023-01-26T02:26:06;-0.19;82.87
70830;SHT30;58451;51.550;7.208;2023-01-26T02:27:44;-0.19;82.85
70830;SHT30;58451;51.550;7.208;2023-01-26T02:29:16;-0.17;82.85
70830;SHT30;58451;51.550;7.208;2023-01-26T02:30:47;-0.17;82.90
70830;SHT30;58451;51.550;7.208;2023-01-26T02:32:19;-0.19;83.23
70830;SHT30;58451;51.550;7.208;2023-01-26T02:33:53;-0.19;83.12
70830;SHT30;58451;51.550;7.208;2023-01-26T02:35:24;-0.20;83.28
70830;SHT30;58451;51.550;7.208;2023-01-26T02:36:57;-0.21;83.37
70830;SHT30;58451;51.550;7.208;2023-01-26T02:38:42;-0.20;83.23
70830;SHT30;58451;51.550;7.208;2023-01-26T02:40:39;-0.20;83.20
70830;SHT30;58451;51.550;7.208;2023-01-26T02:42:19;-0.16;83.20
70830;SHT30;58451;51.550;7.208;2023-01-26T02:44:11;-0.15;83.20
70830;SHT30;58451;51.550;7.208;2023-01-26T02:45:45;-0.15;83.25
70830;SHT30;58451;51.550;7.208;2023-01-26T02:47:17;-0.15;83.20
70830;SHT30;58451;51.550;7.208;2023-01-26T02:48:49;-0.14;83.20
70830;SHT30;58451;51.550;7.208;2023-01-26T02:50:39;-0.14;83.18
70830;SHT30;58451;51.550;7.208;2023-01-26T02:52:10;-0.15;83.20
70830;SHT30;58451;51.550;7.208;2023-01-26T02:53:43;-0.13;83.18
70830;SHT30;58451;51.550;7.208;2023-01-26T02:55:15;-0.12;83.17
70830;SHT30;58451;51.550;7.208;2023-01-26T02:56:52;-0.12;83.12
70830;SHT30;58451;51.550;7.208;2023-01-26T02:58:23;-0.13;83.23
70830;SHT30;58451;51.550;7.208;2023-01-26T02:59:54;-0.13;83.25
70830;SHT30;58451;51.550;7.208;2023-01-26T03:01:26;-0.13;83.20
70830;SHT30;58451;51.550;7.208;2023-01-26T03:02:58;-0.14;83.22
70830;SHT30;58451;51.550;7.208;2023-01-26T03:04:31;-0.14;83.28
70830;SHT30;58451;51.550;7.208;2023-01-26T03:06:02;-0.13;83.32
70830;SHT30;58451;51.550;7.208;2023-01-26T03:07:34;-0.11;83.43
70830;SHT30;58451;51.550;7.208;2023-01-26T03:09:06;-0.10;83.42
70830;SHT30;58451;51.550;7.208;2023-01-26T03:10:37;-0.09;83.55
70830;SHT30;58451;51.550;7.208;2023-01-26T03:12:09;-0.10;83.63
70830;SHT30;58451;51.550;7.208;2023-01-26T03:13:41;-0.09;83.63
70830;SHT30;58451;51.550;7.208;2023-01-26T03:15:12;-0.08;83.57
70830;SHT30;58451;51.550;7.208;2023-01-26T03:17:02;-0.08;83.60
70830;SHT30;58451;51.550;7.208;2023-01-26T03:18:34;-0.06;83.50
70830;SHT30;58451;51.550;7.208;2023-01-26T03:20:27;-0.06;83.77
70830;SHT30;58451;51.550;7.208;2023-01-26T03:22:17;-0.06;83.77
70830;SHT30;58451;51.550;7.208;2023-01-26T03:24:10;-0.06;83.67
70830;SHT30;58451;51.550;7.208;2023-01-26T03:26:03;-0.05;83.60
70830;SHT30;58451;51.550;7.208;2023-01-26T03:27:53;-0.06;83.63
70830;SHT30;58451;51.550;7.208;2023-01-26T03:29:25;-0.05;83.65
70830;SHT30;58451;51.550;7.208;2023-01-26T03:31:03;-0.06;83.63
70830;SHT30;58451;51.550;7.208;2023-01-26T03:32:37;-0.06;83.62
70830;SHT30;58451;51.550;7.208;2023-01-26T03:34:10;-0.05;83.60
70830;SHT30;58451;51.550;7.208;2023-01-26T03:35:43;-0.04;83.53
70830;SHT30;58451;51.550;7.208;2023-01-26T03:37:16;-0.03;83.60
70830;SHT30;58451;51.550;7.208;2023-01-26T03:39:03;-0.04;83.55
70830;SHT30;58451;51.550;7.208;2023-01-26T03:40:35;-0.04;83.62
70830;SHT30;58451;51.550;7.208;2023-01-26T03:42:25;-0.05;83.57
70830;SHT30;58451;51.550;7.208;2023-01-26T03:44:17;-0.07;83.50
70830;SHT30;58451;51.550;7.208;2023-01-26T03:46:07;-0.09;83.48
70830;SHT30;58451;51.550;7.208;2023-01-26T03:48:07;-0.10;83.50
70830;SHT30;58451;51.550;7.208;2023-01-26T03:50:00;-0.10;83.50
70830;SHT30;58451;51.550;7.208;2023-01-26T03:51:50;-0.12;83.50
70830;SHT30;58451;51.550;7.208;2023-01-26T03:53:40;-0.13;83.50
70830;SHT30;58451;51.550;7.208;2023-01-26T03:55:32;-0.13;83.55
70830;SHT30;58451;51.550;7.208;2023-01-26T03:57:22;-0.13;83.48
70830;SHT30;58451;51.550;7.208;2023-01-26T03:58:54;-0.12;83.48
70830;SHT30;58451;51.550;7.208;2023-01-26T04:00:38;-0.13;83.50
70830;SHT30;58451;51.550;7.208;2023-01-26T04:02:09;-0.12;83.53
70830;SHT30;58451;51.550;7.208;2023-01-26T04:04:01;-0.13;83.63
70830;SHT30;58451;51.550;7.208;2023-01-26T04:05:51;-0.14;83.53
70830;SHT30;58451;51.550;7.208;2023-01-26T04:07:51;-0.13;83.50
70830;SHT30;58451;51.550;7.208;2023-01-26T04:09:41;-0.14;83.50
70830;SHT30;58451;51.550;7.208;2023-01-26T04:11:12;-0.15;83.60
70830;SHT30;58451;51.550;7.208;2023-01-26T04:12:44;-0.14;83.60
70830;SHT30;58451;51.550;7.208;2023-01-26T04:14:34;-0.15;83.60
70830;SHT30;58451;51.550;7.208;2023-01-26T04:16:27;-0.16;83.60
70830;SHT30;58451;51.550;7.208;2023-01-26T04:18:17;-0.16;83.62
70830;SHT30;58451;51.550;7.208;2023-01-26T04:20:09;-0.17;83.60
70830;SHT30;58451;51.550;7.208;2023-01-26T04:22:00;-0.17;83.67
70830;SHT30;58451;51.550;7.208;2023-01-26T04:23:31;-0.17;83.70
70830;SHT30;58451;51.550;7.208;2023-01-26T04:25:03;-0.17;83.82
70830;SHT30;58451;51.550;7.208;2023-01-26T04:26:36;-0.17;83.83
70830;SHT30;58451;51.550;7.208;2023-01-26T04:28:10;-0.17;83.87
70830;SHT30;58451;51.550;7.208;2023-01-26T04:29:42;-0.16;83.83
70830;SHT30;58451;51.550;7.208;2023-01-26T04:31:13;-0.16;83.92
70830;SHT30;58451;51.550;7.208;2023-01-26T04:32:49;-0.16;83.93
70830;SHT30;58451;51.550;7.208;2023-01-26T04:34:22;-0.16;83.90
70830;SHT30;58451;51.550;7.208;2023-01-26T04:35:53;-0.16;83.90
70830;SHT30;58451;51.550;7.208;2023-01-26T04:37:25;-0.15;83.98
70830;SHT30;58451;51.550;7.208;2023-01-26T04:38:57;-0.14;84.00
70830;SHT30;58451;51.550;7.208;2023-01-26T04:40:29;-0.15;83.98
70830;SHT30;58451;51.550;7.208;2023-01-26T04:42:00;-0.15;84.03
70830;SHT30;58451;51.550;7.208;2023-01-26T04:43:32;-0.14;84.10
70830;SHT30;58451;51.550;7.208;2023-01-26T04:45:05;-0.13;84.12
70830;SHT30;58451;51.550;7.208;2023-01-26T04:46:38;-0.12;84.27
70830;SHT30;58451;51.550;7.208;2023-01-26T04:48:09;-0.10;84.25
70830;SHT30;58451;51.550;7.208;2023-01-26T04:49:41;-0.11;84.35
70830;SHT30;58451;51.550;7.208;2023-01-26T04:51:13;-0.10;84.35
70830;SHT30;58451;51.550;7.208;2023-01-26T04:52:49;-0.08;84.30
70830;SHT30;58451;51.550;7.208;2023-01-26T04:54:21;-0.06;84.23
70830;SHT30;58451;51.550;7.208;2023-01-26T04:55:54;-0.08;84.20
70830;SHT30;58451;51.550;7.208;2023-01-26T04:57:25;-0.06;84.15
70830;SHT30;58451;51.550;7.208;2023-01-26T04:58:58;-0.05;84.13
70830;SHT30;58451;51.550;7.208;2023-01-26T05:00:35;-0.05;84.20
70830;SHT30;58451;51.550;7.208;2023-01-26T05:02:08;-0.05;84.20
70830;SHT30;58451;51.550;7.208;2023-01-26T05:03:40;-0.06;84.23
70830;SHT30;58451;51.550;7.208;2023-01-26T05:05:11;-0.06;84.33
70830;SHT30;58451;51.550;7.208;2023-01-26T05:06:43;-0.07;84.50
70830;SHT30;58451;51.550;7.208;2023-01-26T05:08:15;-0.07;84.62
70830;SHT30;58451;51.550;7.208;2023-01-26T05:09:48;-0.06;84.77
70830;SHT30;58451;51.550;7.208;2023-01-26T05:11:39;-0.08;84.80
70830;SHT30;58451;51.550;7.208;2023-01-26T05:13:29;-0.07;84.68
70830;SHT30;58451;51.550;7.208;2023-01-26T05:15:34;-0.07;84.65
70830;SHT30;58451;51.550;7.208;2023-01-26T05:17:16;-0.07;84.48
70830;SHT30;58451;51.550;7.208;2023-01-26T05:19:11;-0.06;84.42
70830;SHT30;58451;51.550;7.208;2023-01-26T05:20:49;-0.05;84.43
70830;SHT30;58451;51.550;7.208;2023-01-26T05:22:25;-0.05;84.40
70830;SHT30;58451;51.550;7.208;2023-01-26T05:24:16;-0.04;84.38
70830;SHT30;58451;51.550;7.208;2023-01-26T05:26:06;-0.03;84.38
70830;SHT30;58451;51.550;7.208;2023-01-26T05:27:56;-0.02;84.40
70830;SHT30;58451;51.550;7.208;2023-01-26T05:29:28;-0.02;84.38
70830;SHT30;58451;51.550;7.208;2023-01-26T05:31:01;-0.00;84.38
70830;SHT30;58451;51.550;7.208;2023-01-26T05:32:32;0.00;84.35
70830;SHT30;58451;51.550;7.208;2023-01-26T05:34:04;0.02;84.37
70830;SHT30;58451;51.550;7.208;2023-01-26T05:35:37;0.02;84.33
70830;SHT30;58451;51.550;7.208;2023-01-26T05:37:12;0.03;84.33
70830;SHT30;58451;51.550;7.208;2023-01-26T05:38:47;0.03;84.40
70830;SHT30;58451;51.550;7.208;2023-01-26T05:40:20;0.03;84.45
70830;SHT30;58451;51.550;7.208;2023-01-26T05:41:53;0.03;84.42
70830;SHT30;58451;51.550;7.208;2023-01-26T05:43:53;0.01;84.45
70830;SHT30;58451;51.550;7.208;2023-01-26T05:45:57;0.02;84.48
70830;SHT30;58451;51.550;7.208;2023-01-26T05:47:30;0.01;84.45
70830;SHT30;58451;51.550;7.208;2023-01-26T05:49:01;0.01;84.42
70830;SHT30;58451;51.550;7.208;2023-01-26T05:50:33;0.03;84.45
70830;SHT30;58451;51.550;7.208;2023-01-26T05:52:17;0.04;84.45
70830;SHT30;58451;51.550;7.208;2023-01-26T05:53:53;0.04;84.50
70830;SHT30;58451;51.550;7.208;2023-01-26T05:55:24;0.02;84.47
70830;SHT30;58451;51.550;7.208;2023-01-26T05:56:56;0.03;84.50
70830;SHT30;58451;51.550;7.208;2023-01-26T05:58:29;0.03;84.50
70830;SHT30;58451;51.550;7.208;2023-01-26T06:00:01;0.01;84.50
70830;SHT30;58451;51.550;7.208;2023-01-26T06:01:44;0.01;84.50
70830;SHT30;58451;51.550;7.208;2023-01-26T06:03:15;0.01;84.53
70830;SHT30;58451;51.550;7.208;2023-01-26T06:04:47;0.03;84.60
70830;SHT30;58451;51.550;7.208;2023-01-26T06:06:19;0.02;84.62
70830;SHT30;58451;51.550;7.208;2023-01-26T06:08:05;0.01;84.60
70830;SHT30;58451;51.550;7.208;2023-01-26T06:09:51;0.01;84.60
70830;SHT30;58451;51.550;7.208;2023-01-26T06:11:39;0.01;84.60
70830;SHT30;58451;51.550;7.208;2023-01-26T06:13:27;0.03;84.60
70830;SHT30;58451;51.550;7.208;2023-01-26T06:15:10;0.03;84.60
70830;SHT30;58451;51.550;7.208;2023-01-26T06:16:46;0.03;84.60
70830;SHT30;58451;51.550;7.208;2023-01-26T06:18:18;0.03;84.60
70830;SHT30;58451;51.550;7.208;2023-01-26T06:19:55;0.04;84.60
70830;SHT30;58451;51.550;7.208;2023-01-26T06:21:30;0.05;84.60
70830;SHT30;58451;51.550;7.208;2023-01-26T06:23:03;0.06;84.68
70830;SHT30;58451;51.550;7.208;2023-01-26T06:24:43;0.05;84.73
70830;SHT30;58451;51.550;7.208;2023-01-26T06:26:17;0.05;84.80
70830;SHT30;58451;51.550;7.208;2023-01-26T06:27:49;0.06;84.85
70830;SHT30;58451;51.550;7.208;2023-01-26T06:29:29;0.08;84.80
70830;SHT30;58451;51.550;7.208;2023-01-26T06:31:03;0.09;84.82
70830;SHT30;58451;51.550;7.208;2023-01-26T06:32:38;0.10;84.80
70830;SHT30;58451;51.550;7.208;2023-01-26T06:34:11;0.11;84.80
70830;SHT30;58451;51.550;7.208;2023-01-26T06:35:45;0.13;84.80
70830;SHT30;58451;51.550;7.208;2023-01-26T06:37:16;0.13;84.80
70830;SHT30;58451;51.550;7.208;2023-01-26T06:38:48;0.13;84.88
70830;SHT30;58451;51.550;7.208;2023-01-26T06:40:22;0.14;84.88
70830;SHT30;58451;51.550;7.208;2023-01-26T06:41:54;0.15;84.87
70830;SHT30;58451;51.550;7.208;2023-01-26T06:43:26;0.16;84.85
70830;SHT30;58451;51.550;7.208;2023-01-26T06:44:57;0.16;84.90
70830;SHT30;58451;51.550;7.208;2023-01-26T06:46:28;0.17;84.93
70830;SHT30;58451;51.550;7.208;2023-01-26T06:48:00;0.16;84.97
70830;SHT30;58451;51.550;7.208;2023-01-26T06:49:31;0.18;84.95
70830;SHT30;58451;51.550;7.208;2023-01-26T06:51:04;0.18;84.97
70830;SHT30;58451;51.550;7.208;2023-01-26T06:52:50;0.19;84.95
70830;SHT30;58451;51.550;7.208;2023-01-26T06:54:46;0.21;84.95
70830;SHT30;58451;51.550;7.208;2023-01-26T06:56:46;0.21;84.92
70830;SHT30;58451;51.550;7.208;2023-01-26T06:58:30;0.22;84.92
70830;SHT30;58451;51.550;7.208;2023-01-26T07:00:32;0.24;84.90
70830;SHT30;58451;51.550;7.208;2023-01-26T07:02:18;0.24;84.88
70830;SHT30;58451;51.550;7.208;2023-01-26T07:03:52;0.25;84.87
70830;SHT30;58451;51.550;7.208;2023-01-26T07:05:24;0.25;84.85
70830;SHT30;58451;51.550;7.208;2023-01-26T07:06:56;0.24;84.82
70830;SHT30;58451;51.550;7.208;2023-01-26T07:08:27;0.23;84.82
70830;SHT30;58451;51.550;7.208;2023-01-26T07:09:58;0.24;84.82
70830;SHT30;58451;51.550;7.208;2023-01-26T07:11:29;0.24;84.80
70830;SHT30;58451;51.550;7.208;2023-01-26T07:13:02;0.26;84.87
70830;SHT30;58451;51.550;7.208;2023-01-26T07:14:35;0.25;84.80
70830;SHT30;58451;51.550;7.208;2023-01-26T07:16:10;0.25;84.80
70830;SHT30;58451;51.550;7.208;2023-01-26T07:17:44;0.26;84.90
70830;SHT30;58451;51.550;7.208;2023-01-26T07:19:16;0.26;84.90
70830;SHT30;58451;51.550;7.208;2023-01-26T07:20:48;0.27;84.83
70830;SHT30;58451;51.550;7.208;2023-01-26T07:22:19;0.27;84.88
70830;SHT30;58451;51.550;7.208;2023-01-26T07:23:50;0.27;84.85
70830;SHT30;58451;51.550;7.208;2023-01-26T07:25:25;0.27;84.80
70830;SHT30;58451;51.550;7.208;2023-01-26T07:26:57;0.28;84.80
70830;SHT30;58451;51.550;7.208;2023-01-26T07:28:28;0.29;84.82
70830;SHT30;58451;51.550;7.208;2023-01-26T07:30:00;0.29;84.90
70830;SHT30;58451;51.550;7.208;2023-01-26T07:31:31;0.30;84.85
70830;SHT30;58451;51.550;7.208;2023-01-26T07:33:02;0.30;84.85
70830;SHT30;58451;51.550;7.208;2023-01-26T07:34:35;0.31;84.90
70830;SHT30;58451;51.550;7.208;2023-01-26T07:36:06;0.33;84.90
70830;SHT30;58451;51.550;7.208;2023-01-26T07:37:37;0.33;84.90
70830;SHT30;58451;51.550;7.208;2023-01-26T07:39:09;0.33;84.85
70830;SHT30;58451;51.550;7.208;2023-01-26T07:40:41;0.36;84.82
70830;SHT30;58451;51.550;7.208;2023-01-26T07:42:12;0.36;84.88
70830;SHT30;58451;51.550;7.208;2023-01-26T07:43:53;0.38;84.87
70830;SHT30;58451;51.550;7.208;2023-01-26T07:45:25;0.40;84.83
70830;SHT30;58451;51.550;7.208;2023-01-26T07:46:58;0.40;84.95
70830;SHT30;58451;51.550;7.208;2023-01-26T07:48:29;0.42;84.93
70830;SHT30;58451;51.550;7.208;2023-01-26T07:50:01;0.42;84.90
70830;SHT30;58451;51.550;7.208;2023-01-26T07:51:32;0.43;84.87
70830;SHT30;58451;51.550;7.208;2023-01-26T07:53:03;0.43;84.87
70830;SHT30;58451;51.550;7.208;2023-01-26T07:54:35;0.43;84.90
70830;SHT30;58451;51.550;7.208;2023-01-26T07:56:12;0.44;84.90
70830;SHT30;58451;51.550;7.208;2023-01-26T07:57:51;0.44;84.90
70830;SHT30;58451;51.550;7.208;2023-01-26T07:59:22;0.44;84.88
70830;SHT30;58451;51.550;7.208;2023-01-26T08:00:54;0.44;84.90
70830;SHT30;58451;51.550;7.208;2023-01-26T08:02:26;0.44;84.88
70830;SHT30;58451;51.550;7.208;2023-01-26T08:03:57;0.46;84.90
70830;SHT30;58451;51.550;7.208;2023-01-26T08:05:29;0.47;84.92
70830;SHT30;58451;51.550;7.208;2023-01-26T08:07:02;0.48;84.93
70830;SHT30;58451;51.550;7.208;2023-01-26T08:08:34;0.49;84.97
70830;SHT30;58451;51.550;7.208;2023-01-26T08:10:06;0.50;84.90
70830;SHT30;58451;51.550;7.208;2023-01-26T08:11:42;0.49;84.88
70830;SHT30;58451;51.550;7.208;2023-01-26T08:13:13;0.52;84.92
70830;SHT30;58451;51.550;7.208;2023-01-26T08:14:47;0.54;84.90
70830;SHT30;58451;51.550;7.208;2023-01-26T08:16:18;0.54;84.90
70830;SHT30;58451;51.550;7.208;2023-01-26T08:17:50;0.55;84.90
70830;SHT30;58451;51.550;7.208;2023-01-26T08:19:28;0.57;84.92
70830;SHT30;58451;51.550;7.208;2023-01-26T08:21:00;0.59;84.97
70830;SHT30;58451;51.550;7.208;2023-01-26T08:22:31;0.61;85.00
70830;SHT30;58451;51.550;7.208;2023-01-26T08:24:04;0.62;84.97
70830;SHT30;58451;51.550;7.208;2023-01-26T08:25:36;0.63;84.92
70830;SHT30;58451;51.550;7.208;2023-01-26T08:27:07;0.66;84.88
70830;SHT30;58451;51.550;7.208;2023-01-26T08:28:39;0.68;84.90
70830;SHT30;58451;51.550;7.208;2023-01-26T08:30:11;0.71;84.82
70830;SHT30;58451;51.550;7.208;2023-01-26T08:31:45;0.76;84.82
70830;SHT30;58451;51.550;7.208;2023-01-26T08:33:17;0.79;84.88
70830;SHT30;58451;51.550;7.208;2023-01-26T08:34:48;0.83;84.83
70830;SHT30;58451;51.550;7.208;2023-01-26T08:36:20;0.84;84.80
70830;SHT30;58451;51.550;7.208;2023-01-26T08:37:56;0.87;84.82
70830;SHT30;58451;51.550;7.208;2023-01-26T08:39:27;0.89;84.82
70830;SHT30;58451;51.550;7.208;2023-01-26T08:40:59;0.91;84.90
70830;SHT30;58451;51.550;7.208;2023-01-26T08:42:31;0.92;84.80
70830;SHT30;58451;51.550;7.208;2023-01-26T08:44:03;0.94;84.77
70830;SHT30;58451;51.550;7.208;2023-01-26T08:45:35;0.94;84.70
70830;SHT30;58451;51.550;7.208;2023-01-26T08:47:06;0.96;84.73
70830;SHT30;58451;51.550;7.208;2023-01-26T08:48:37;0.97;84.70
70830;SHT30;58451;51.550;7.208;2023-01-26T08:50:09;0.97;84.67
70830;SHT30;58451;51.550;7.208;2023-01-26T08:51:41;0.98;84.62
70830;SHT30;58451;51.550;7.208;2023-01-26T08:53:14;0.99;84.57
70830;SHT30;58451;51.550;7.208;2023-01-26T08:54:46;1.00;84.57
70830;SHT30;58451;51.550;7.208;2023-01-26T08:56:17;1.02;84.53
70830;SHT30;58451;51.550;7.208;2023-01-26T08:57:50;1.03;84.52
70830;SHT30;58451;51.550;7.208;2023-01-26T08:59:24;1.04;84.50
70830;SHT30;58451;51.550;7.208;2023-01-26T09:00:57;1.07;84.55
70830;SHT30;58451;51.550;7.208;2023-01-26T09:02:28;1.11;84.48
70830;SHT30;58451;51.550;7.208;2023-01-26T09:03:59;1.13;84.42
70830;SHT30;58451;51.550;7.208;2023-01-26T09:05:35;1.16;84.48
70830;SHT30;58451;51.550;7.208;2023-01-26T09:07:08;1.18;84.42
70830;SHT30;58451;51.550;7.208;2023-01-26T09:08:43;1.23;84.45
70830;SHT30;58451;51.550;7.208;2023-01-26T09:10:15;1.26;84.42
70830;SHT30;58451;51.550;7.208;2023-01-26T09:11:46;1.29;84.38
70830;SHT30;58451;51.550;7.208;2023-01-26T09:13:18;1.32;84.42
70830;SHT30;58451;51.550;7.208;2023-01-26T09:14:50;1.34;84.42
70830;SHT30;58451;51.550;7.208;2023-01-26T09:16:21;1.34;84.27
70830;SHT30;58451;51.550;7.208;2023-01-26T09:17:54;1.35;84.30
70830;SHT30;58451;51.550;7.208;2023-01-26T09:19:26;1.37;84.40
70830;SHT30;58451;51.550;7.208;2023-01-26T09:21:06;1.39;84.42
70830;SHT30;58451;51.550;7.208;2023-01-26T09:22:39;1.42;84.40
70830;SHT30;58451;51.550;7.208;2023-01-26T09:24:11;1.46;84.47
70830;SHT30;58451;51.550;7.208;2023-01-26T09:25:43;1.48;84.43
70830;SHT30;58451;51.550;7.208;2023-01-26T09:27:17;1.49;84.40
70830;SHT30;58451;51.550;7.208;2023-01-26T09:28:51;1.51;84.40
70830;SHT30;58451;51.550;7.208;2023-01-26T09:30:23;1.54;84.37
70830;SHT30;58451;51.550;7.208;2023-01-26T09:31:54;1.52;84.30
70830;SHT30;58451;51.550;7.208;2023-01-26T09:33:26;1.54;84.28
70830;SHT30;58451;51.550;7.208;2023-01-26T09:34:57;1.55;84.23
70830;SHT30;58451;51.550;7.208;2023-01-26T09:36:30;1.57;84.25
70830;SHT30;58451;51.550;7.208;2023-01-26T09:38:03;1.60;84.23
70830;SHT30;58451;51.550;7.208;2023-01-26T09:39:35;1.61;84.30
70830;SHT30;58451;51.550;7.208;2023-01-26T09:44:43;1.66;84.23
70830;SHT30;58451;51.550;7.208;2023-01-26T09:50:41;1.64;84.22
70830;SHT30;58451;51.550;7.208;2023-01-26T09:52:26;1.62;84.23
70830;SHT30;58451;51.550;7.208;2023-01-26T09:54:05;1.60;84.17
70830;SHT30;58451;51.550;7.208;2023-01-26T09:55:56;1.57;84.18
70830;SHT30;58451;51.550;7.208;2023-01-26T09:57:31;1.54;84.20
70830;SHT30;58451;51.550;7.208;2023-01-26T10:01:17;1.50;84.20
70830;SHT30;58451;51.550;7.208;2023-01-26T10:04:41;1.53;84.30
70830;SHT30;58451;51.550;7.208;2023-01-26T10:06:23;1.54;84.33
70830;SHT30;58451;51.550;7.208;2023-01-26T10:08:10;1.54;84.23
70830;SHT30;58451;51.550;7.208;2023-01-26T10:09:46;1.56;84.23
70830;SHT30;58451;51.550;7.208;2023-01-26T10:13:08;1.59;84.30
70830;SHT30;58451;51.550;7.208;2023-01-26T10:16:53;1.63;84.27
70830;SHT30;58451;51.550;7.208;2023-01-26T10:18:27;1.67;84.32
70830;SHT30;58451;51.550;7.208;2023-01-26T10:20:30;1.72;84.33
70830;SHT30;58451;51.550;7.208;2023-01-26T10:22:11;1.75;84.28
70830;SHT30;58451;51.550;7.208;2023-01-26T10:23:59;1.78;84.28
70830;SHT30;58451;51.550;7.208;2023-01-26T10:25:34;1.81;84.22
70830;SHT30;58451;51.550;7.208;2023-01-26T10:27:09;1.83;84.20
70830;SHT30;58451;51.550;7.208;2023-01-26T10:28:44;1.85;84.15
70830;SHT30;58451;51.550;7.208;2023-01-26T10:30:28;1.87;84.10
70830;SHT30;58451;51.550;7.208;2023-01-26T10:32:00;1.91;84.08